Parshall, Colorado
Current Conditions -  °F | °C
As of 11:36 AM on Sunday 21 Dec 2014 (Local Time) from K20V Reporting Station
Moderate Snow Moderate Snow  
Wind Chill: 23°   Ceiling: 500
Heat Index: 32°   Visibility: 0.5mi
Dew Point: 28°   Wind: 12mph
Humidity: 87%   Direction: 260°W
Pressure: 29.81"   Gusts: 16mph
Location:  40.06°N, 106.18°W
Report Text: K20V 211836Z AUTO 26010G14KT 244V314 1/2SM SN OVC005 00/M02 A2981 RMK AO2
Loading
Personal Weather Stations






























Interactive Weather Map New forecast layout! Learn more

10-Day Weather Forecast

Advertisements
Track Severe Weather on mobile